Time;durP1;ratioP1;P1;durP2;ratioP2;P2;SDS_P1;SDS_P2;PMS_P1;PMS_P2;Temp;Humidity;BMP_temperature;BMP_pressure;BME280_temperature;BME280_humidity;BME280_pressure;Samples;Min_cycle;Max_cycle;Signal;HPM_P1;HPM_P2
2022/04/25 00:01:15;;;;;;;10.30;6.63;;;;;;;9.38;68.88;100791.69;4949318;28;20109;-82
2022/04/25 00:03:41;;;;;;;12.63;6.85;;;;;;;9.34;69.52;100783.19;4951027;28;20621;-82
2022/04/25 00:06:07;;;;;;;10.02;6.72;;;;;;;9.32;69.54;100787.69;4950054;29;20491;-79
2022/04/25 00:08:33;;;;;;;9.27;6.30;;;;;;;9.27;69.88;100792.44;4950459;29;20039;-79
2022/04/25 00:10:59;;;;;;;9.63;6.75;;;;;;;9.19;69.75;100788.63;4965995;28;20027;-79
2022/04/25 00:13:24;;;;;;;9.43;7.00;;;;;;;9.24;69.59;100797.06;4946292;28;20046;-79
2022/04/25 00:15:52;;;;;;;11.88;6.95;;;;;;;9.16;70.16;100805.44;4948416;29;20031;-79
2022/04/25 00:18:18;;;;;;;12.00;7.10;;;;;;;9.18;69.92;100800.91;4949683;28;20487;-79
2022/04/25 00:20:44;;;;;;;12.82;7.47;;;;;;;9.14;70.10;100796.84;4981146;28;20455;-79
2022/04/25 00:23:10;;;;;;;12.85;7.28;;;;;;;9.09;70.30;100802.41;4947809;29;20105;-79
2022/04/25 00:25:36;;;;;;;13.45;7.32;;;;;;;9.03;70.23;100800.19;4966172;28;20439;-79
2022/04/25 00:28:19;;;;;;;11.50;7.38;;;;;;;9.02;70.73;100808.19;4949307;28;20110;-79
2022/04/25 00:30:47;;;;;;;;;;;;;;;9.16;68.21;100810.69;4949774;29;20058;-79
2022/04/25 00:33:15;;;;;;;11.77;7.60;;;;;;;8.96;70.91;100808.59;4950083;28;20273;-79
2022/04/25 00:35:42;;;;;;;12.48;7.72;;;;;;;8.89;71.18;100804.72;4950744;29;20031;-79
2022/04/25 00:38:09;;;;;;;12.57;7.70;;;;;;;8.85;71.33;100806.72;4949829;29;20035;-79
2022/04/25 00:40:34;;;;;;;12.20;8.18;;;;;;;8.82;71.78;100809.53;4949749;29;20113;-79
2022/04/25 00:43:00;;;;;;;9.18;7.20;;;;;;;8.80;71.57;100806.16;4948374;28;20102;-78
2022/04/25 00:45:26;;;;;;;13.80;7.32;;;;;;;8.76;71.42;100802.91;4947294;28;20070;-79
2022/04/25 00:47:54;;;;;;;11.32;8.43;;;;;;;8.72;71.75;100806.66;4950483;28;20082;-79
2022/04/25 00:50:20;;;;;;;13.70;8.00;;;;;;;8.70;71.74;100805.09;4948985;29;20086;-79
2022/04/25 00:52:45;;;;;;;12.18;7.95;;;;;;;8.69;72.16;100806.03;4950111;28;20039;-79
2022/04/25 00:55:12;;;;;;;12.32;8.27;;;;;;;8.65;72.03;100808.03;4950552;28;20027;-79
2022/04/25 00:57:38;;;;;;;13.30;7.72;;;;;;;8.61;72.18;100801.31;4947891;28;20019;-78
2022/04/25 01:00:10;;;;;;;15.48;8.32;;;;;;;8.54;72.66;100807.91;4945401;29;20388;-78
2022/04/25 01:02:36;;;;;;;11.40;8.60;;;;;;;8.53;72.72;100806.22;4979553;28;20042;-79
2022/04/25 01:05:09;;;;;;;14.27;8.30;;;;;;;8.41;73.10;100797.41;4949477;28;20110;-78
2022/04/25 01:07:36;;;;;;;12.63;8.27;;;;;;;8.48;72.98;100806.53;4950253;28;20024;-78
2022/04/25 01:10:04;;;;;;;11.50;8.30;;;;;;;8.38;73.30;100791.47;4949884;29;20564;-78
2022/04/25 01:12:30;;;;;;;12.55;8.32;;;;;;;8.37;73.28;100800.28;4949371;29;20027;-78
2022/04/25 01:15:06;;;;;;;10.88;8.32;;;;;;;8.31;73.67;100808.53;4948176;29;20102;-78
2022/04/25 01:17:41;;;;;;;13.77;8.57;;;;;;;8.29;73.59;100800.75;4947696;29;20093;-78
2022/04/25 01:20:27;;;;;;;14.43;8.68;;;;;;;8.20;73.85;100803.16;4947862;29;20038;-78
2022/04/25 01:29:01;;;;;;;15.35;9.05;;;;;;;8.07;74.72;100796.09;4949870;29;20047;-79
2022/04/25 01:31:27;;;;;;;12.70;9.20;;;;;;;8.07;75.06;100803.09;4947448;28;20027;-78
2022/04/25 01:33:53;;;;;;;14.48;8.93;;;;;;;8.04;74.98;100801.53;4949238;28;20510;-79
2022/04/25 01:36:36;;;;;;;11.90;8.98;;;;;;;8.03;74.39;100802.47;4950007;28;20484;-79
2022/04/25 01:39:08;;;;;;;14.02;8.90;;;;;;;7.95;75.10;100801.25;4949668;28;20082;-79
2022/04/25 01:41:42;;;;;;;13.43;9.77;;;;;;;7.95;75.26;100802.09;4950440;29;20027;-79
2022/04/25 01:44:16;;;;;;;12.32;9.07;;;;;;;7.90;75.47;100806.78;4942270;29;20043;-78
2022/04/25 01:46:42;;;;;;;15.40;9.32;;;;;;;7.88;75.57;100808.66;4947857;29;20074;-78
2022/04/25 01:49:10;;;;;;;14.50;10.00;;;;;;;7.84;75.40;100804.56;4938350;29;20035;-78
2022/04/25 01:51:45;;;;;;;19.20;10.63;;;;;;;7.85;75.87;100814.94;4950317;29;20041;-79
2022/04/25 01:54:27;;;;;;;13.52;9.93;;;;;;;7.82;75.85;100809.06;4949886;29;20043;-79
2022/04/25 01:56:54;;;;;;;13.38;9.68;;;;;;;7.76;76.02;100812.06;4950316;29;20451;-78
2022/04/25 01:59:19;;;;;;;17.35;10.30;;;;;;;7.76;75.96;100806.81;4949272;29;20066;-78
2022/04/25 02:01:45;;;;;;;17.88;10.02;;;;;;;7.68;76.27;100811.72;4977059;28;20067;-81
2022/04/25 02:04:10;;;;;;;16.05;10.20;;;;;;;7.57;76.29;100794.03;4946766;28;20035;-81
2022/04/25 02:06:36;;;;;;;16.02;10.63;;;;;;;7.53;76.64;100782.06;4967160;28;20027;-81
2022/04/25 02:09:01;;;;;;;15.27;9.82;;;;;;;7.54;76.54;100795.06;4951578;29;20546;-79
2022/04/25 02:11:31;;;;;;;14.15;10.32;;;;;;;7.60;77.34;100808.69;4953439;28;20043;-79
2022/04/25 02:13:57;;;;;;;15.77;10.70;;;;;;;7.59;77.01;100813.09;4952544;29;20090;-78
2022/04/25 02:16:23;;;;;;;17.15;10.38;;;;;;;7.55;77.59;100806.38;4967299;28;20369;-78
2022/04/25 02:18:50;;;;;;;15.07;10.77;;;;;;;7.54;77.12;100809.94;4953939;29;20034;-78
2022/04/25 02:21:16;;;;;;;16.65;10.10;;;;;;;7.51;77.64;100810.13;4952720;28;20046;-78
2022/04/25 02:23:42;;;;;;;14.35;10.45;;;;;;;7.45;77.70;100805.25;4953053;28;20478;-79
2022/04/25 02:26:08;;;;;;;19.65;10.57;;;;;;;7.47;77.66;100806.84;4965534;28;20098;-78
2022/04/25 02:28:34;;;;;;;16.40;10.85;;;;;;;7.45;77.56;100808.72;4957661;28;20531;-78
2022/04/25 02:31:00;;;;;;;16.02;10.20;;;;;;;7.42;77.71;100800.22;4968058;28;20054;-78
2022/04/25 02:33:31;;;;;;;18.27;10.90;;;;;;;7.40;77.81;100805.56;4969751;28;20027;-78
2022/04/25 02:35:56;;;;;;;17.88;11.02;;;;;;;7.39;78.13;100806.47;4947759;29;20102;-78
2022/04/25 02:38:22;;;;;;;15.13;10.80;;;;;;;7.38;77.89;100804.81;4953370;29;20500;-80
2022/04/25 02:41:04;;;;;;;17.83;10.85;;;;;;;7.35;78.20;100804.16;4957024;28;20031;-80
2022/04/25 02:43:34;;;;;;;16.53;10.63;;;;;;;7.31;78.55;100806.13;4951569;29;20031;-78
2022/04/25 02:46:01;;;;;;;13.50;10.45;;;;;;;7.27;78.26;100795.94;4953330;29;20103;-79
2022/04/25 02:48:29;;;;;;;14.68;10.77;;;;;;;7.25;78.37;100798.66;4951235;29;20059;-78
2022/04/25 02:50:55;;;;;;;16.10;11.05;;;;;;;7.25;78.51;100798.66;4949545;28;20082;-79
2022/04/25 02:53:22;;;;;;;16.67;11.43;;;;;;;7.24;78.37;100796.97;4951909;28;20106;-77
2022/04/25 02:55:49;;;;;;;18.02;11.60;;;;;;;7.18;78.50;100792.91;4952367;28;20030;-78
2022/04/25 02:58:14;;;;;;;14.18;11.20;;;;;;;7.17;78.87;100798.25;4958152;28;20022;-78
2022/04/25 03:00:48;;;;;;;17.48;11.63;;;;;;;7.14;78.71;100801.06;4952476;29;20525;-77
2022/04/25 03:03:15;;;;;;;21.27;11.98;;;;;;;7.03;79.00;100799.09;4951776;29;20027;-77
2022/04/25 03:05:45;;;;;;;14.70;11.73;;;;;;;6.99;79.47;100794.13;4951801;29;20102;-77
2022/04/25 03:08:12;;;;;;;15.35;11.00;;;;;;;7.01;79.63;100800.13;4950532;28;20444;-80
2022/04/25 03:10:37;;;;;;;17.33;12.30;;;;;;;6.97;79.89;100804.69;4951315;28;20543;-80
2022/04/25 03:13:06;;;;;;;17.73;12.38;;;;;;;6.94;79.04;100799.66;4966741;28;20114;-80
2022/04/25 03:15:33;;;;;;;17.35;11.75;;;;;;;6.87;79.67;100799.16;4951195;28;20042;-80
2022/04/25 03:17:58;;;;;;;15.95;12.30;;;;;;;6.71;79.82;100785.31;4950419;29;20031;-80
2022/04/25 03:20:24;;;;;;;17.42;11.95;;;;;;;6.68;79.88;100795.94;4951554;28;20369;-80
2022/04/25 03:22:50;;;;;;;16.50;12.00;;;;;;;6.69;80.58;100795.00;4951963;29;20034;-80
2022/04/25 03:25:15;;;;;;;17.00;12.23;;;;;;;6.72;80.12;100800.06;4933998;29;20019;-80
2022/04/25 03:27:40;;;;;;;17.13;12.38;;;;;;;6.59;80.40;100802.56;4950361;29;20031;-80
2022/04/25 03:30:06;;;;;;;15.68;12.43;;;;;;;6.60;80.51;100808.63;4952097;29;20031;-81
2022/04/25 03:32:32;;;;;;;14.40;12.23;;;;;;;6.55;80.58;100810.66;4951340;29;20030;-80
2022/04/25 03:34:58;;;;;;;17.02;11.98;;;;;;;6.41;80.27;100798.41;4951887;29;20113;-80
2022/04/25 03:37:24;;;;;;;15.68;11.95;;;;;;;6.50;80.48;100815.31;4951417;29;20110;-80
2022/04/25 03:39:49;;;;;;;19.45;12.70;;;;;;;6.46;81.16;100819.03;4960315;28;20093;-81
2022/04/25 03:42:15;;;;;;;18.10;12.23;;;;;;;6.34;81.12;100802.28;4951732;29;20055;-80
2022/04/25 03:44:41;;;;;;;20.88;12.82;;;;;;;6.32;81.21;100811.97;4965941;28;20205;-77
2022/04/25 03:47:06;;;;;;;17.13;12.85;;;;;;;6.29;81.25;100812.16;4949840;29;20039;-80
2022/04/25 03:49:32;;;;;;;18.88;13.43;;;;;;;6.31;81.63;100817.28;4950556;29;20074;-80
2022/04/25 03:51:57;;;;;;;18.77;13.13;;;;;;;6.25;81.27;100819.31;4966614;28;20041;-78
2022/04/25 03:57:10;;;;;;;19.05;13.63;;;;;;;6.20;81.71;100826.56;4942613;29;20151;-78
2022/04/25 03:59:35;;;;;;;20.42;13.45;;;;;;;6.17;81.76;100826.75;4958963;28;20053;-81
2022/04/25 04:02:01;;;;;;;20.30;12.80;;;;;;;6.12;81.35;100820.09;4949639;29;20027;-81
2022/04/25 04:04:26;;;;;;;19.63;13.43;;;;;;;6.07;81.84;100822.97;4950707;29;20394;-78
2022/04/25 04:06:54;;;;;;;21.27;12.77;;;;;;;5.98;81.81;100820.84;4949147;28;20054;-77
2022/04/25 04:12:04;;;;;;;16.13;13.13;;;;;;;5.96;82.16;100833.16;4948763;29;20042;-78
2022/04/25 04:14:30;;;;;;;20.52;12.95;;;;;;;5.93;82.34;100830.72;4950119;29;20400;-77
2022/04/25 04:17:03;;;;;;;20.40;12.82;;;;;;;5.85;82.15;100838.94;4950459;29;20031;-78
2022/04/25 04:19:29;;;;;;;19.33;13.15;;;;;;;5.81;82.05;100833.97;4965862;28;20035;-80
2022/04/25 04:21:54;;;;;;;20.25;12.90;;;;;;;5.79;82.63;100838.44;4948596;29;20038;-77
2022/04/25 04:24:20;;;;;;;19.58;13.40;;;;;;;5.79;82.56;100839.28;4965856;28;20131;-77
2022/04/25 04:26:48;;;;;;;20.38;13.10;;;;;;;5.72;82.59;100831.84;4950567;28;20034;-78
2022/04/25 04:29:14;;;;;;;21.60;14.80;;;;;;;5.75;82.99;100836.91;4981368;28;20547;-77
2022/04/25 04:31:42;;;;;;;20.58;14.60;;;;;;;5.75;83.57;100836.91;4951208;29;20158;-80
2022/04/25 04:34:07;;;;;;;20.48;14.20;;;;;;;5.74;83.63;100836.06;4950278;29;20035;-78
2022/04/25 04:36:33;;;;;;;21.63;14.20;;;;;;;5.70;83.61;100841.53;4950261;29;20034;-78
2022/04/25 04:38:58;;;;;;;23.58;15.15;;;;;;;5.71;83.45;100845.84;4950957;29;20510;-78
2022/04/25 04:41:24;;;;;;;24.13;15.45;;;;;;;5.70;83.92;100847.59;4965980;28;20074;-77
2022/04/25 04:43:49;;;;;;;20.60;15.23;;;;;;;5.70;83.83;100851.97;4947531;29;20023;-78
2022/04/25 04:46:14;;;;;;;21.52;14.63;;;;;;;5.68;84.25;100851.22;4949987;29;20019;-78
2022/04/25 04:48:40;;;;;;;22.45;15.98;;;;;;;5.69;84.19;100847.69;4951202;29;20034;-77
2022/04/25 04:51:07;;;;;;;23.10;15.60;;;;;;;5.71;84.36;100846.69;4950427;29;20035;-78
2022/04/25 04:53:35;;;;;;;20.77;15.27;;;;;;;5.73;84.57;100846.59;4950951;29;20085;-78
2022/04/25 04:56:00;;;;;;;23.58;15.73;;;;;;;5.73;84.27;100851.81;4950203;29;20427;-78
2022/04/25 04:58:28;;;;;;;22.08;15.57;;;;;;;5.77;85.15;100862.00;4950385;29;20042;-78
2022/04/25 05:00:54;;;;;;;21.75;14.82;;;;;;;5.77;84.80;100872.44;4964306;28;20452;-78
2022/04/25 05:03:20;;;;;;;24.30;16.25;;;;;;;5.75;84.92;100870.84;4948839;28;20062;-77
2022/04/25 05:05:45;;;;;;;21.55;15.68;;;;;;;5.75;84.92;100868.25;4950242;29;20074;-78
2022/04/25 05:08:11;;;;;;;23.45;16.15;;;;;;;5.68;84.72;100859.06;4949909;29;20059;-80
2022/04/25 05:10:37;;;;;;;21.65;16.05;;;;;;;5.77;85.50;100874.22;4949887;29;20089;-80
2022/04/25 05:13:05;;;;;;;22.38;15.93;;;;;;;5.80;85.33;100876.66;4964763;28;20143;-79
2022/04/25 05:15:31;;;;;;;23.58;16.10;;;;;;;5.82;84.85;100877.41;4950573;29;20110;-80
2022/04/25 05:18:02;;;;;;;22.30;16.05;;;;;;;5.87;85.90;100881.47;4932114;29;20159;-77
2022/04/25 05:20:29;;;;;;;25.88;17.52;;;;;;;5.90;85.49;100883.94;4950220;29;20069;-78
2022/04/25 05:22:55;;;;;;;25.15;17.08;;;;;;;5.93;86.16;100888.16;4949955;28;20394;-81
2022/04/25 05:25:25;;;;;;;24.55;17.27;;;;;;;5.93;85.92;100878.56;4949914;29;20031;-81
2022/04/25 05:27:53;;;;;;;26.95;16.75;;;;;;;5.95;86.05;100875.84;4950685;29;20055;-81
2022/04/25 05:30:21;;;;;;;23.80;16.38;;;;;;;6.04;86.20;100898.03;4980756;28;20034;-81
2022/04/25 05:32:49;;;;;;;24.50;16.70;;;;;;;5.98;86.47;100871.31;4960043;28;20035;-81
2022/04/25 05:35:16;;;;;;;25.60;17.20;;;;;;;6.14;86.99;100892.22;4980763;28;20023;-81
2022/04/25 05:37:43;;;;;;;25.52;17.35;;;;;;;6.18;87.03;100893.75;4950721;29;20083;-81
2022/04/25 05:40:09;;;;;;;26.75;18.20;;;;;;;6.23;87.08;100904.78;4951093;28;20174;-78
2022/04/25 05:42:48;;;;;;;24.95;17.88;;;;;;;6.25;87.64;100905.53;4953105;29;20031;-78
2022/04/25 05:45:16;;;;;;;28.63;18.27;;;;;;;6.32;87.55;100915.63;4953112;29;20496;-78
2022/04/25 05:47:43;;;;;;;24.17;18.17;;;;;;;6.38;87.82;100912.69;4947945;28;20011;-78
2022/04/25 05:52:55;;;;;;;26.50;19.55;;;;;;;6.45;87.58;100927.97;4974759;28;20151;-78
2022/04/25 05:55:25;;;;;;;23.80;18.70;;;;;;;6.47;87.29;100920.88;4953137;28;20047;-79
2022/04/25 05:57:50;;;;;;;26.08;17.73;;;;;;;6.50;87.20;100912.03;4952217;29;20091;-78
2022/04/25 06:00:17;;;;;;;23.75;17.83;;;;;;;6.55;87.25;100921.28;4966945;28;20499;-79
2022/04/25 06:02:44;;;;;;;30.13;18.83;;;;;;;6.63;87.41;100926.09;4952100;29;20462;-79
2022/04/25 06:05:11;;;;;;;25.88;19.25;;;;;;;6.65;87.00;100923.38;4953806;29;20426;-80
2022/04/25 06:07:43;;;;;;;25.58;18.75;;;;;;;6.62;87.40;100910.47;4968480;28;20055;-81
2022/04/25 06:10:11;;;;;;;28.95;19.13;;;;;;;6.75;87.49;100930.63;4953224;29;20027;-80
2022/04/25 06:12:48;;;;;;;25.85;18.92;;;;;;;6.78;87.35;100938.28;4984984;28;20027;-81
2022/04/25 06:15:16;;;;;;;27.55;18.58;;;;;;;6.81;87.24;100940.75;4983669;28;20042;-81
2022/04/25 06:17:45;;;;;;;24.50;19.20;;;;;;;6.85;87.25;100942.25;4968307;28;20101;-78
2022/04/25 06:20:10;;;;;;;30.73;19.30;;;;;;;6.87;86.77;100943.00;4967029;28;20110;-80
2022/04/25 06:22:37;;;;;;;26.00;18.95;;;;;;;6.92;86.49;100940.13;4952949;29;20115;-80
2022/04/25 06:25:07;;;;;;;28.50;18.67;;;;;;;6.98;86.58;100952.00;4967901;28;20045;-79
2022/04/25 06:27:33;;;;;;;26.83;19.60;;;;;;;7.01;86.63;100951.84;4967121;28;20035;-79
2022/04/25 06:30:06;;;;;;;21.92;18.55;;;;;;;7.03;86.21;100949.97;4952619;29;20513;-79
2022/04/25 06:32:36;;;;;;;25.00;18.30;;;;;;;7.08;86.51;100950.53;4967422;28;20082;-78
2022/04/25 06:35:15;;;;;;;26.05;18.83;;;;;;;7.15;86.76;100947.47;4950977;29;20035;-78
2022/04/25 06:37:41;;;;;;;26.08;20.08;;;;;;;7.19;86.32;100953.38;4951449;29;20094;-78
2022/04/25 06:40:07;;;;;;;31.42;19.80;;;;;;;7.21;86.70;100948.91;4951485;29;20027;-80
2022/04/25 06:42:33;;;;;;;25.67;19.17;;;;;;;7.20;85.71;100947.22;4953375;29;20476;-81
2022/04/25 06:44:58;;;;;;;26.27;19.48;;;;;;;7.25;86.10;100946.97;4952295;29;20054;-81
2022/04/25 06:47:23;;;;;;;26.95;19.80;;;;;;;7.27;85.87;100948.56;4953081;29;20423;-81
2022/04/25 06:49:49;;;;;;;28.98;20.48;;;;;;;7.34;86.09;100952.50;4952391;28;20034;-81
2022/04/25 06:52:15;;;;;;;26.80;20.70;;;;;;;7.33;86.35;100947.34;4935888;29;20097;-81
2022/04/25 06:54:41;;;;;;;28.33;20.10;;;;;;;7.39;86.46;100949.59;4952263;29;20495;-79
2022/04/25 06:57:06;;;;;;;28.50;21.17;;;;;;;7.40;86.32;100952.13;4950285;29;20039;-79
2022/04/25 06:59:32;;;;;;;27.80;21.10;;;;;;;7.44;86.59;100953.63;4960252;28;20051;-79
2022/04/25 07:01:58;;;;;;;34.28;21.27;;;;;;;7.47;86.10;100950.81;4952881;29;20027;-78
2022/04/25 07:04:23;;;;;;;26.88;20.70;;;;;;;7.53;85.90;100947.84;4951614;29;20031;-79
2022/04/25 07:07:08;;;;;;;32.53;20.77;;;;;;;7.60;85.74;100957.94;4952087;29;20038;-78
2022/04/25 07:09:34;;;;;;;32.72;20.95;;;;;;;7.64;86.46;100959.47;4952006;29;20026;-79
2022/04/25 07:12:01;;;;;;;29.95;21.77;;;;;;;7.60;85.72;100950.09;4965717;28;20034;-81
2022/04/25 07:14:28;;;;;;;28.27;21.52;;;;;;;7.70;85.99;100961.72;4948143;29;20038;-79
2022/04/25 07:16:57;;;;;;;28.40;21.88;;;;;;;7.72;85.94;100957.22;4966201;28;20439;-80
2022/04/25 07:19:22;;;;;;;27.20;20.98;;;;;;;7.76;85.03;100961.34;4951952;28;20034;-80
2022/04/25 07:30:04;;;;;;;31.90;23.33;;;;;;;7.99;86.34;100967.78;4950870;29;20498;-79
2022/04/25 07:32:30;;;;;;;27.20;22.33;;;;;;;8.03;86.19;100969.31;4949077;29;20075;-78
2022/04/25 07:34:56;;;;;;;27.20;22.58;;;;;;;8.07;85.31;100961.16;4949366;29;20444;-79
2022/04/25 07:37:24;;;;;;;29.17;21.98;;;;;;;8.09;85.30;100958.44;4950024;29;20081;-81
2022/04/25 07:39:50;;;;;;;31.15;23.20;;;;;;;8.16;85.76;100971.06;4950284;29;20026;-80
2022/04/25 07:42:18;;;;;;;29.88;22.58;;;;;;;8.22;85.83;100963.75;4950641;29;20475;-79
2022/04/25 07:44:46;;;;;;;32.40;23.67;;;;;;;8.26;85.33;100970.50;4950455;29;20023;-78
2022/04/25 07:47:11;;;;;;;28.90;22.83;;;;;;;8.29;85.72;100980.78;4981539;28;20648;-80
2022/04/25 07:50:16;;;;;;;30.70;23.67;;;;;;;8.32;85.36;100976.19;4950960;29;20046;-78
2022/04/25 07:53:05;;;;;;;31.83;24.10;;;;;;;8.40;84.69;100979.19;4946442;29;20487;-78
2022/04/25 07:55:42;;;;;;;29.45;23.27;;;;;;;8.43;84.19;100978.19;4960355;28;20039;-79
2022/04/25 07:58:11;;;;;;;31.38;23.85;;;;;;;8.45;84.34;100976.31;4949606;29;20406;-78
2022/04/25 08:00:42;;;;;;;31.65;23.83;;;;;;;8.48;83.87;100992.69;4949009;29;20079;-79
2022/04/25 08:03:08;;;;;;;31.27;23.30;;;;;;;8.52;84.39;100984.63;4950401;28;20071;-79
2022/04/25 08:05:33;;;;;;;28.38;23.42;;;;;;;8.52;83.90;100982.84;4966225;28;20026;-81
2022/04/25 08:07:59;;;;;;;30.08;23.73;;;;;;;8.49;84.17;100980.44;4950472;29;20671;-82
2022/04/25 08:10:28;;;;;;;29.67;22.95;;;;;;;8.56;83.57;100999.25;4949420;29;20472;-79
2022/04/25 08:18:28;;;;;;;29.70;24.15;;;;;;;8.59;83.69;100999.88;4949526;28;20035;-79
2022/04/25 08:20:54;;;;;;;34.53;24.92;;;;;;;8.59;83.81;100999.03;4950602;28;20387;-79
2022/04/25 08:23:21;;;;;;;28.63;24.02;;;;;;;8.61;84.84;100998.00;4951149;29;20030;-79
2022/04/25 08:25:49;;;;;;;29.90;24.60;;;;;;;8.66;84.54;101011.66;4950897;29;20026;-78
2022/04/25 08:28:15;;;;;;;30.15;25.05;;;;;;;8.66;85.90;101011.66;4965260;28;20038;-79
2022/04/25 08:30:41;;;;;;;35.60;25.90;;;;;;;8.68;85.76;101014.19;4950728;29;20031;-79
2022/04/25 08:33:08;;;;;;;33.13;25.95;;;;;;;8.64;86.20;101013.53;4950954;29;20453;-78
2022/04/25 08:35:34;;;;;;;35.08;26.25;;;;;;;8.68;86.68;101025.53;4949940;29;20042;-78
2022/04/25 08:37:59;;;;;;;33.90;25.90;;;;;;;8.70;86.65;101028.06;4949839;29;20376;-79
2022/04/25 08:40:26;;;;;;;31.65;26.73;;;;;;;8.70;87.57;101026.25;4949153;29;20046;-79
2022/04/25 08:42:56;;;;;;;33.13;27.00;;;;;;;8.70;87.69;101030.69;4949990;29;20118;-79
2022/04/25 08:45:23;;;;;;;37.83;27.73;;;;;;;8.68;88.24;101030.78;4981571;28;20372;-79
2022/04/25 08:47:58;;;;;;;33.65;26.83;;;;;;;8.72;88.67;101041.91;4951319;28;20495;-77
2022/04/25 08:50:24;;;;;;;33.45;27.52;;;;;;;8.70;88.55;101034.13;4950324;29;20118;-78
2022/04/25 08:52:51;;;;;;;35.63;27.35;;;;;;;8.69;88.77;101036.84;4965433;28;20538;-80
2022/04/25 08:55:17;;;;;;;33.88;28.15;;;;;;;8.71;89.54;101041.06;4951091;29;20051;-80
2022/04/25 08:57:44;;;;;;;32.42;27.08;;;;;;;8.72;88.64;101047.16;4965514;28;20039;-78
2022/04/25 09:00:10;;;;;;;34.22;28.75;;;;;;;8.72;89.26;101042.75;4966531;28;20055;-79
2022/04/25 09:02:47;;;;;;;34.97;27.92;;;;;;;8.72;89.67;101047.16;4963343;28;20054;-80
2022/04/25 09:05:12;;;;;;;34.38;28.15;;;;;;;8.73;89.38;101049.69;4957291;28;20159;-79
2022/04/25 09:07:42;;;;;;;34.60;27.33;;;;;;;8.62;89.51;101041.66;4947873;28;20275;-78
2022/04/25 09:10:10;;;;;;;38.10;29.08;;;;;;;8.68;89.39;101057.00;4946099;28;20082;-81
2022/04/25 09:12:42;;;;;;;37.42;29.25;;;;;;;8.68;89.97;101070.13;4948501;29;20031;-79
2022/04/25 09:15:09;;;;;;;37.95;28.98;;;;;;;8.68;89.46;101067.50;4950414;29;20245;-80
2022/04/25 09:17:38;;;;;;;37.65;28.92;;;;;;;8.65;89.85;101062.44;4946704;29;20162;-78
2022/04/25 09:20:08;;;;;;;34.45;29.55;;;;;;;8.68;90.49;101072.75;4948264;28;20030;-79
2022/04/25 09:22:42;;;;;;;37.30;30.35;;;;;;;8.65;91.02;101070.31;4951106;28;20011;-77
2022/04/25 09:25:12;;;;;;;39.60;29.85;;;;;;;8.67;90.43;101076.31;4947426;29;20035;-79
2022/04/25 09:27:42;;;;;;;37.08;29.40;;;;;;;8.62;90.45;101067.88;4949257;28;20031;-78
2022/04/25 09:30:18;;;;;;;37.78;29.45;;;;;;;8.69;90.31;101078.81;4961069;28;20075;-78
2022/04/25 09:32:50;;;;;;;37.25;29.73;;;;;;;8.65;90.85;101075.56;4947990;28;20134;-78
2022/04/25 09:35:34;;;;;;;37.50;30.65;;;;;;;8.64;90.39;101071.25;4946887;28;20028;-78
2022/04/25 09:38:08;;;;;;;40.80;32.10;;;;;;;8.68;91.01;101077.97;4958977;28;20511;-79
2022/04/25 09:40:35;;;;;;;40.15;31.35;;;;;;;8.68;90.98;101077.97;4942291;28;20036;-81
2022/04/25 09:43:12;;;;;;;36.67;30.75;;;;;;;8.59;90.66;101062.81;4945005;29;20031;-80
2022/04/25 09:45:42;;;;;;;37.25;30.88;;;;;;;8.62;91.15;101073.13;4945786;29;20034;-81
2022/04/25 09:48:09;;;;;;;38.40;29.83;;;;;;;8.67;91.01;101076.31;4944077;29;20498;-81
2022/04/25 09:50:35;;;;;;;37.22;31.70;;;;;;;8.72;90.74;101084.72;4946980;29;20038;-81
2022/04/25 09:53:02;;;;;;;37.80;31.08;;;;;;;8.71;91.12;101085.66;4942939;28;20549;-78
2022/04/25 09:55:32;;;;;;;40.53;32.67;;;;;;;8.74;92.54;101087.25;4944789;29;20039;-79
2022/04/25 09:58:37;;;;;;;39.70;31.77;;;;;;;8.77;91.13;101093.16;4941482;29;20042;-79
2022/04/25 10:01:11;;;;;;;39.75;32.08;;;;;;;8.77;91.43;101093.16;4943346;29;20055;-79
2022/04/25 10:03:37;;;;;;;38.78;30.27;;;;;;;8.77;91.40;101097.53;4946034;28;20093;-79
2022/04/25 10:06:04;;;;;;;39.60;30.15;;;;;;;8.77;91.59;101098.38;4961101;28;20447;-81
2022/04/25 10:08:31;;;;;;;36.92;30.00;;;;;;;8.76;91.15;101101.94;4941391;29;20036;-78
2022/04/25 10:11:02;;;;;;;35.45;29.52;;;;;;;8.77;90.97;101106.25;4947802;28;21376;-79
2022/04/25 10:13:27;;;;;;;37.33;30.42;;;;;;;8.78;91.70;101109.72;4953039;28;20083;-79
2022/04/25 10:15:53;;;;;;;34.58;29.13;;;;;;;8.81;92.01;101098.22;4945220;29;20034;-79
2022/04/25 10:18:19;;;;;;;34.42;29.33;;;;;;;8.79;91.87;101107.00;4945668;28;20031;-79
2022/04/25 10:21:11;;;;;;;31.05;27.35;;;;;;;8.83;91.24;101112.09;4943756;28;20037;-79
2022/04/25 10:23:37;;;;;;;31.20;26.70;;;;;;;8.77;91.13;101102.78;4947901;28;20031;-80
2022/04/25 10:26:04;;;;;;;30.88;26.65;;;;;;;8.75;91.62;101099.44;4946099;28;20019;-80
2022/04/25 10:28:34;;;;;;;30.75;27.42;;;;;;;8.72;91.01;101094.38;4956165;28;20038;-81
2022/04/25 10:31:08;;;;;;;31.60;27.70;;;;;;;8.84;92.10;101113.78;4944237;29;20460;-80
2022/04/25 10:33:49;;;;;;;30.52;27.05;;;;;;;8.88;91.57;101115.25;4947883;28;20042;-80
2022/04/25 10:36:36;;;;;;;28.88;25.52;;;;;;;8.91;91.21;101120.31;4944961;29;20027;-80
2022/04/25 10:39:19;;;;;;;29.00;25.90;;;;;;;8.90;91.12;101127.34;4947741;28;20035;-81
2022/04/25 10:44:45;;;;;;;27.92;24.50;;;;;;;8.88;91.28;101131.84;4946021;29;20510;-81
2022/04/25 10:47:13;;;;;;;28.35;25.33;;;;;;;8.90;91.44;101135.22;4941734;29;20023;-81
2022/04/25 10:49:49;;;;;;;31.58;26.35;;;;;;;8.94;91.67;101134.09;4948708;28;20510;-81
2022/04/25 10:55:29;;;;;;;28.65;24.45;;;;;;;8.96;91.50;101134.00;4944050;29;20031;-81
2022/04/25 10:58:04;;;;;;;31.58;26.23;;;;;;;9.00;91.42;101141.56;4942807;28;20373;-80
2022/04/25 11:00:42;;;;;;;29.98;26.05;;;;;;;9.03;91.54;101145.78;4943467;29;20051;-81
2022/04/25 11:03:14;;;;;;;28.83;25.40;;;;;;;9.02;91.62;101144.09;4942355;29;20439;-81
2022/04/25 11:05:44;;;;;;;29.42;24.92;;;;;;;8.96;91.35;101131.38;4946120;29;20031;-81
2022/04/25 11:08:16;;;;;;;29.02;25.92;;;;;;;9.05;91.49;101138.66;4945596;28;20027;-79
2022/04/25 11:11:02;;;;;;;29.58;26.08;;;;;;;9.06;91.34;101140.34;4938948;29;20110;-79
2022/04/25 11:13:56;;;;;;;28.30;24.00;;;;;;;9.09;91.53;101148.03;4941742;29;20486;-79
2022/04/25 11:16:26;;;;;;;30.42;26.38;;;;;;;9.05;91.78;101150.00;4919588;29;20044;-78
2022/04/25 11:19:10;;;;;;;29.17;24.98;;;;;;;9.07;90.63;101147.28;4939372;29;20036;-78
2022/04/25 11:21:40;;;;;;;28.52;23.05;;;;;;;9.07;90.69;101152.53;4937951;29;20459;-81
2022/04/25 11:24:25;;;;;;;27.35;23.48;;;;;;;9.08;91.49;101156.84;4941115;29;20035;-81
2022/04/25 11:26:51;;;;;;;27.90;24.20;;;;;;;9.08;90.91;101160.31;4940860;29;20479;-76
2022/04/25 11:29:16;;;;;;;27.73;23.75;;;;;;;9.06;91.04;101156.94;4956052;28;20035;-78
2022/04/25 11:31:42;;;;;;;25.45;21.92;;;;;;;9.08;91.91;101165.56;4942106;29;20094;-79
2022/04/25 11:34:11;;;;;;;25.88;22.00;;;;;;;9.07;91.25;101157.78;4942540;29;20027;-79
2022/04/25 11:36:38;;;;;;;26.77;21.90;;;;;;;9.09;90.98;101172.50;4938167;28;20055;-78
2022/04/25 11:41:55;;;;;;;25.35;21.17;;;;;;;9.11;90.60;101172.41;4941605;29;20138;-79
2022/04/25 11:44:20;;;;;;;27.48;21.50;;;;;;;9.09;90.70;101156.75;4944815;29;20403;-79
2022/04/25 11:46:47;;;;;;;25.63;22.30;;;;;;;9.11;90.50;101162.72;4955967;28;20036;-79
2022/04/25 11:49:25;;;;;;;27.50;22.45;;;;;;;9.18;91.10;101176.31;4937769;28;20027;-80
2022/04/25 11:51:50;;;;;;;26.13;22.73;;;;;;;9.18;90.74;101171.06;4945401;28;20051;-80
2022/04/25 11:54:16;;;;;;;26.17;22.63;;;;;;;9.19;90.92;101169.28;4942718;29;20381;-78
2022/04/25 11:56:41;;;;;;;28.10;23.90;;;;;;;9.24;90.67;101180.38;4944048;28;20035;-79
2022/04/25 11:59:18;;;;;;;28.27;24.80;;;;;;;9.30;91.91;101175.56;4942098;29;20031;-79
2022/04/25 12:01:47;;;;;;;31.90;25.55;;;;;;;9.32;91.56;101178.94;4941073;29;20040;-79
2022/04/25 12:04:26;;;;;;;30.13;25.48;;;;;;;9.35;91.34;101178.72;4942362;29;20042;-79